Date,TemperatureHighF,TemperatureAvgF,TemperatureLowF,DewpointHighF,DewpointAvgF,DewpointLowF,HumidityHigh,HumidityAvg,HumidityLow,PressureMaxIn,PressureMinIn,WindSpeedMaxMPH,WindSpeedAvgMPH,GustSpeedMaxMPH,PrecipitationSumIn
2013-7-1,94,83,75,44,36,27,28,19,14,0.00,40.00,10,6,21,0.00
2013-7-2,93,82,75,46,38,34,28,21,14,0.00,40.00,13,8,28,0.00
2013-7-3,97,84,75,39,36,34,25,19,12,0.00,40.00,14,9,25,0.00
2013-7-4,95,83,75,41,38,34,24,20,15,0.00,40.00,14,7,24,0.00
2013-7-5,92,81,72,47,37,32,31,21,13,0.00,40.00,13,6,26,0.00
2013-7-6,83,76,70,40,35,30,28,23,18,0.00,40.00,17,6,29,0.00
2013-7-7,87,77,69,33,26,15,23,15,10,0.00,40.00,19,7,28,0.00
2013-7-8,89,79,67,31,21,15,16,12,7,0.00,40.00,19,9,39,0.00
2013-7-9,90,80,69,44,32,15,26,18,11,0.00,40.00,14,7,26,0.00
2013-7-10,90,76,73,47,30,-100,31,20,12,0.00,40.00,11,8,21,0.00
2013-7-11,73,69,64,54,45,33,56,43,25,0.00,40.00,9,4,14,0.00
2013-7-12,83,70,63,52,45,42,53,41,25,0.00,40.00,12,5,26,0.00
2013-7-13,87,75,66,48,43,36,42,33,24,0.00,40.00,9,4,19,0.00
2013-7-14,88,76,66,44,39,33,36,27,20,0.00,40.00,9,6,25,0.00
2013-7-15,87,76,67,46,42,37,40,30,18,0.00,40.00,18,8,30,0.00
2013-7-16,82,82,81,34,29,24,18,15,12,0.00,40.00,22,19,36,0.00
2013-7-17,83,71,63,17,12,2,16,11,5,0.00,40.00,12,8,23,0.00
2013-7-18,88,78,68,24,19,12,14,11,8,0.00,40.00,11,6,20,0.00
2013-7-19,90,80,72,52,36,15,34,22,10,0.00,40.00,10,5,19,0.00
2013-7-20,84,74,69,55,46,-100,54,39,25,0.00,40.00,11,5,21,0.00
2013-7-21,74,67,60,60,56,48,86,67,53,0.00,40.00,19,5,30,0.49
2013-7-22,75,68,60,61,56,52,82,68,53,0.00,40.00,14,7,22,0.01
2013-7-23,81,71,61,56,53,48,76,55,34,0.00,40.00,11,6,21,0.00
2013-7-24,85,77,68,51,48,41,53,38,26,0.00,40.00,15,5,26,0.00
2013-7-25,88,78,64,50,44,38,57,31,21,0.00,40.00,19,8,28,0.09
2013-7-26,74,70,64,61,51,45,80,53,39,0.00,40.00,12,5,20,0.10
2013-7-27,81,72,65,56,51,43,63,48,35,0.00,40.00,9,4,21,0.01
2013-7-28,82,73,65,47,42,32,44,33,19,0.00,40.00,18,8,28,0.00
2013-7-29,82,73,64,35,28,19,28,20,10,0.00,40.00,18,10,32,0.00
2013-7-30,82,74,67,44,38,28,35,27,15,0.00,40.00,20,11,32,0.00
2013-7-31,85,75,67,48,39,-1,42,30,5,0.00,40.00,29,13,42,0.00